KLEW/LEW METAR and TAF weather

Enter ICAO airport designator
Station Type Date Time Source
KLEW METAR 2021/04/14 18:56 UTC NOAA

KLEW 141856Z AUTO 00000KT 10SM CLR 16/02 A2996 RMK AO2 SLP154 T01560017


Station Type Date Time Source
KLEW Decoded METAR 2021/04/14 18:56 UTC NOAA

Auburn-Lewiston, ME, United States (KLEW) 44-03N 070-17W
Apr 14, 2021 - 02:56 PM EDT / 2021.04.14 1856 UTC
Wind: Calm:0
Visibility: 10 mile(s):0
Sky conditions: clear
Temperature: 60.1 F (15.6 C)
Dew Point: 35.1 F (1.7 C)
Relative Humidity: 38%
Pressure (altimeter): 29.96 in. Hg (1014 hPa)
ob: KLEW 141856Z AUTO 00000KT 10SM CLR 16/02 A2996 RMK AO2 SLP154 T01560017
cycle: 19

Station Type Date Time Source
KLEW TAF UTC NOAA

Error!

Example: see airport list